CheckWX is a tool to help pilots better visualize weather data.  It is not intended as a substitute for an official pre-flight weather briefing.

19:06:21 UTC

KDAY TAF
James M Cox Dayton International Airport
Dayton, Ohio, USA
KDAY 221738Z 2218/2318 07008KT P6SM BKN250 FM230200 10009KT P6SM BKN250 FM231000 11010KT P6SM OVC150 FM231400 12010KT P6SM OVC030 FM231700 14010KT 3SM -SHRA BR OVC020

Feb-22@
18:00 UTC

Feb-22 @ 18:00 UTC

Feb-23@
02:00 UTC

Feb-23 @ 02:00 UTC

KDAY 221738Z 2218/2318 07008KT P6SM BKN250
Wind
  • 070° at 8 KTS
Cloud Levels
  • Broken at 25,000' AGL

Feb-23@
02:00 UTC

Feb-23 @ 02:00 UTC

Feb-23@
10:00 UTC

Feb-23 @ 10:00 UTC

FM230200 10009KT P6SM BKN250

From

FromStandard forecast or significant change

Wind
  • 100° at 9 KTS
Cloud Levels
  • Broken at 25,000' AGL

Feb-23@
10:00 UTC

Feb-23 @ 10:00 UTC

Feb-23@
14:00 UTC

Feb-23 @ 14:00 UTC

FM231000 11010KT P6SM OVC150

From

FromStandard forecast or significant change

Wind
  • 110° at 10 KTS
Cloud Levels
  • Overcast at 15,000' AGL

Feb-23@
14:00 UTC

Feb-23 @ 14:00 UTC

Feb-23@
17:00 UTC

Feb-23 @ 17:00 UTC

FM231400 12010KT P6SM OVC030

From

FromStandard forecast or significant change

Wind
  • 120° at 10 KTS
Cloud Levels
  • Overcast at 3,000' AGL

Feb-23@
17:00 UTC

Feb-23 @ 17:00 UTC

Feb-23@
18:00 UTC

Feb-23 @ 18:00 UTC

FM231700 14010KT 3SM -SHRA BR OVC020

From

FromStandard forecast or significant change

Wind
  • 140° at 10 KTS
Conditions
Light Rain, Mist
Cloud Levels
  • Overcast at 2,000' AGL